Time;durP1;ratioP1;P1;durP2;ratioP2;P2;SDS_P1;SDS_P2;PMS_P1;PMS_P2;Temp;Humidity;BMP_temperature;BMP_pressure;BME280_temperature;BME280_humidity;BME280_pressure;Samples;Min_cycle;Max_cycle;Signal;HPM_P1;HPM_P2
2021/01/04 00:00:04;;;;;;;3.38;2.03;;;;;;;19.48;42.05;99760.00;5046947;28;20084;-73
2021/01/04 00:02:46;;;;;;;3.30;1.80;;;;;;;19.46;42.30;99756.59;5031171;28;20037;-75
2021/01/04 00:05:14;;;;;;;3.30;1.90;;;;;;;19.49;42.10;99756.47;5030824;28;20473;-73
2021/01/04 00:07:55;;;;;;;2.60;2.10;;;;;;;19.47;42.32;99753.91;5029747;28;20098;-73
2021/01/04 00:10:47;;;;;;;3.38;2.00;;;;;;;19.48;41.99;99758.25;5049389;28;20060;-71
2021/01/04 00:13:24;;;;;;;2.45;1.88;;;;;;;19.48;42.25;99753.00;5041649;28;20033;-72
2021/01/04 00:16:13;;;;;;;3.05;2.00;;;;;;;19.48;42.06;99745.13;5054326;28;20041;-75
2021/01/04 00:19:14;;;;;;;3.17;1.92;;;;;;;19.46;42.11;99746.06;5052825;28;20525;-72
2021/01/04 00:22:06;;;;;;;2.95;2.05;;;;;;;19.47;42.09;99746.03;5053228;28;20493;-75
2021/01/04 00:25:11;;;;;;;3.47;2.10;;;;;;;19.47;42.05;99743.38;5052992;28;20036;-72
2021/01/04 00:27:57;;;;;;;2.28;1.98;;;;;;;19.46;42.02;99749.53;5051897;28;20041;-71
2021/01/04 00:30:38;;;;;;;2.42;1.83;;;;;;;19.48;42.12;99745.13;5053859;28;20455;-74
2021/01/04 00:33:14;;;;;;;2.75;1.88;;;;;;;19.47;42.03;99748.66;5048371;28;20037;-75
2021/01/04 00:35:39;;;;;;;2.38;1.77;;;;;;;19.48;42.05;99747.75;5033757;28;20036;-78
2021/01/04 00:38:29;;;;;;;2.92;1.80;;;;;;;19.47;42.16;99737.25;5034093;28;20025;-72
2021/01/04 00:41:07;;;;;;;2.17;1.58;;;;;;;19.47;42.07;99742.50;5039170;28;20113;-73
2021/01/04 00:43:45;;;;;;;2.60;1.60;;;;;;;19.47;41.99;99742.50;5053791;28;20049;-74
2021/01/04 00:46:14;;;;;;;3.35;1.80;;;;;;;19.48;42.02;99738.97;5053877;28;20036;-77
2021/01/04 00:48:52;;;;;;;2.85;1.58;;;;;;;19.46;42.02;99733.78;5053672;28;20505;-71
2021/01/04 00:51:55;;;;;;;2.95;2.03;;;;;;;19.47;42.17;99742.50;5053366;28;20029;-72
2021/01/04 00:54:54;;;;;;;2.35;1.58;;;;;;;19.46;42.03;99733.78;5048281;28;20112;-78
2021/01/04 00:57:46;;;;;;;1.92;1.40;;;;;;;19.46;41.85;99732.94;5053738;28;20037;-74
2021/01/04 01:00:17;;;;;;;3.65;1.67;;;;;;;19.46;42.10;99736.41;5044507;28;20037;-74
2021/01/04 01:03:04;;;;;;;2.67;1.63;;;;;;;19.46;41.97;99731.16;5033540;28;20045;-76
2021/01/04 01:05:46;;;;;;;2.00;1.55;;;;;;;19.45;42.17;99734.69;5033421;28;20464;-78
2021/01/04 01:08:11;;;;;;;2.13;1.50;;;;;;;19.46;41.91;99731.16;5033874;28;20025;-72
2021/01/04 01:10:54;;;;;;;2.20;1.77;;;;;;;19.47;42.00;99726.75;5048511;28;20041;-75
2021/01/04 01:14:03;;;;;;;2.35;1.48;;;;;;;19.45;42.04;99732.06;5055295;28;20041;-77
2021/01/04 01:16:53;;;;;;;2.45;1.67;;;;;;;19.45;41.97;99736.47;5052152;28;20501;-74
2021/01/04 01:19:32;;;;;;;2.50;1.75;;;;;;;19.45;41.84;99736.47;5053074;28;20036;-73
2021/01/04 01:21:58;;;;;;;1.63;1.15;;;;;;;19.45;41.86;99737.31;5034180;28;20516;-71
2021/01/04 01:24:25;;;;;;;4.32;1.80;;;;;;;19.47;41.84;99734.63;5031531;28;20037;-75
2021/01/04 01:27:23;;;;;;;2.60;1.73;;;;;;;19.46;42.09;99739.03;5032980;28;20048;-74
2021/01/04 01:30:27;;;;;;;2.08;1.63;;;;;;;19.44;41.85;99734.72;5033249;28;20033;-75
2021/01/04 01:33:04;;;;;;;1.75;1.23;;;;;;;19.45;41.98;99744.34;5002204;28;20126;-74
2021/01/04 01:35:53;;;;;;;2.45;1.60;;;;;;;19.44;41.97;99730.31;5032862;28;20037;-73
2021/01/04 01:38:55;;;;;;;2.42;1.92;;;;;;;19.45;41.79;99739.94;5033542;28;20041;-71
2021/01/04 01:41:58;;;;;;;2.25;1.60;;;;;;;19.43;41.95;99740.88;5041929;28;20025;-74
2021/01/04 01:44:39;;;;;;;2.17;1.38;;;;;;;19.45;41.87;99739.94;5052692;28;20045;-72
2021/01/04 01:47:24;;;;;;;1.58;1.17;;;;;;;19.44;41.78;99742.63;5034634;28;20059;-75
2021/01/04 01:50:03;;;;;;;1.40;1.23;;;;;;;19.43;41.80;99741.72;5032695;28;20568;-75
2021/01/04 01:53:12;;;;;;;1.90;1.48;;;;;;;19.43;42.04;99743.50;5032028;28;20036;-74
2021/01/04 01:55:57;;;;;;;2.33;1.45;;;;;;;19.43;41.79;99740.88;5032602;28;20049;-76
2021/01/04 01:58:32;;;;;;;2.05;1.30;;;;;;;19.44;41.75;99743.47;5032425;28;20041;-72
2021/01/04 02:01:23;;;;;;;1.98;1.48;;;;;;;19.43;41.68;99731.22;5039581;28;20052;-71
2021/01/04 02:04:04;;;;;;;1.50;1.20;;;;;;;19.42;41.92;99734.75;5049427;28;20413;-75
2021/01/04 02:06:32;;;;;;;1.38;1.27;;;;;;;19.43;41.79;99725.97;5052042;28;20036;-74
2021/01/04 02:09:04;;;;;;;1.70;1.40;;;;;;;19.44;41.82;99729.47;5042719;28;20470;-74
2021/01/04 02:11:47;;;;;;;2.22;1.60;;;;;;;19.44;41.73;99730.31;5050080;28;20041;-72
2021/01/04 02:14:27;;;;;;;3.83;1.40;;;;;;;19.43;41.76;99733.84;5033360;28;20080;-71
2021/01/04 02:17:16;;;;;;;1.48;1.20;;;;;;;19.43;41.71;99731.22;5052474;28;20090;-74
2021/01/04 02:19:48;;;;;;;2.13;1.50;;;;;;;19.44;41.88;99734.72;5032287;28;20034;-76
2021/01/04 02:22:41;;;;;;;1.95;1.50;;;;;;;19.44;41.79;99732.09;5045870;28;20032;-75
2021/01/04 02:25:07;;;;;;;1.60;1.30;;;;;;;19.42;41.87;99731.28;5051904;28;20033;-75
2021/01/04 02:27:47;;;;;;;1.92;1.50;;;;;;;19.43;41.66;99728.59;5037394;28;20037;-76
2021/01/04 02:30:13;;;;;;;2.42;1.40;;;;;;;19.42;41.71;99729.50;5031964;28;20038;-72
2021/01/04 02:32:39;;;;;;;1.25;1.08;;;;;;;19.43;41.82;99728.59;5032034;28;20563;-74
2021/01/04 02:35:06;;;;;;;3.60;1.60;;;;;;;19.42;41.89;99729.50;5031832;28;20052;-74
2021/01/04 02:37:31;;;;;;;1.85;1.42;;;;;;;19.44;41.77;99726.84;5031730;28;20029;-74
2021/01/04 02:40:06;;;;;;;2.05;1.33;;;;;;;19.43;41.58;99725.97;5032112;28;20083;-70
2021/01/04 02:42:38;;;;;;;1.88;1.27;;;;;;;19.43;41.69;99725.13;5050469;28;20040;-75
2021/01/04 02:45:11;;;;;;;2.33;1.40;;;;;;;19.41;41.52;99729.56;5040593;28;20525;-76
2021/01/04 02:47:45;;;;;;;2.10;1.40;;;;;;;19.43;41.66;99725.13;5031033;28;20037;-74
2021/01/04 02:50:22;;;;;;;1.95;1.33;;;;;;;19.43;41.66;99730.38;5030217;28;20033;-75
2021/01/04 02:53:07;;;;;;;2.45;1.38;;;;;;;19.44;41.71;99730.31;5031040;28;20409;-72
2021/01/04 02:55:51;;;;;;;1.60;1.35;;;;;;;19.43;41.58;99733.84;5029718;28;20167;-73
2021/01/04 02:59:00;;;;;;;1.80;1.40;;;;;;;19.40;41.63;99728.66;5029743;28;20057;-71
2021/01/04 03:01:53;;;;;;;1.70;1.27;;;;;;;19.41;41.55;99729.56;5038086;28;20060;-72
2021/01/04 03:04:21;;;;;;;2.72;1.52;;;;;;;19.42;41.61;99726.03;5049428;28;20037;-73
2021/01/04 03:07:10;;;;;;;1.40;1.30;;;;;;;19.41;41.62;99729.56;5049249;28;20110;-74
2021/01/04 03:09:41;;;;;;;1.92;1.50;;;;;;;19.42;41.59;99729.50;5036398;28;20048;-74
2021/01/04 03:12:16;;;;;;;1.45;1.17;;;;;;;19.41;41.44;99727.78;5030283;28;20044;-72
2021/01/04 03:14:44;;;;;;;2.10;1.50;;;;;;;19.41;41.56;99730.41;5031913;28;20398;-72
2021/01/04 03:17:28;;;;;;;1.88;1.48;;;;;;;19.41;41.56;99727.78;5031603;28;20033;-76
2021/01/04 03:19:59;;;;;;;1.58;1.30;;;;;;;19.42;41.61;99726.88;5031247;28;20048;-72
2021/01/04 03:22:25;;;;;;;3.65;1.30;;;;;;;19.42;41.33;99729.50;5046712;28;20021;-74
2021/01/04 03:24:51;;;;;;;1.30;1.20;;;;;;;19.44;41.52;99724.22;5051286;28;20065;-71
2021/01/04 03:27:29;;;;;;;2.13;1.40;;;;;;;19.42;41.61;99726.03;5051404;28;20421;-75
2021/01/04 03:29:54;;;;;;;1.75;1.27;;;;;;;19.42;41.20;99723.41;5050698;28;20107;-73
2021/01/04 03:32:20;;;;;;;1.98;1.38;;;;;;;19.41;41.48;99722.50;5051325;28;20493;-73
2021/01/04 03:34:45;;;;;;;1.35;1.10;;;;;;;19.42;41.55;99726.88;5051011;28;20506;-72
2021/01/04 03:37:11;;;;;;;1.50;0.90;;;;;;;19.41;41.52;99730.41;5047528;28;20208;-74
2021/01/04 03:39:37;;;;;;;1.70;1.10;;;;;;;19.41;41.68;99722.50;5031522;28;20414;-73
2021/01/04 03:42:02;;;;;;;2.28;1.35;;;;;;;19.41;41.48;99727.78;5031128;28;20100;-74
2021/01/04 03:44:29;;;;;;;2.30;1.30;;;;;;;19.41;41.08;99733.03;5031772;28;20037;-74
2021/01/04 03:46:55;;;;;;;2.63;1.20;;;;;;;19.42;41.52;99726.03;5035005;28;20029;-75
2021/01/04 03:49:21;;;;;;;1.10;1.00;;;;;;;19.41;41.41;99722.50;5034849;28;20041;-73
2021/01/04 03:51:55;;;;;;;1.63;1.33;;;;;;;19.41;41.43;99724.28;5034630;28;20029;-75
2021/01/04 03:54:21;;;;;;;;;;;;;;;19.41;41.36;99724.28;5035359;28;20540;-71
2021/01/04 03:56:46;;;;;;;1.13;0.80;;;;;;;19.40;41.27;99723.41;5034926;28;20000;-73
2021/01/04 03:59:15;;;;;;;2.25;1.58;;;;;;;19.41;41.46;99726.91;5034789;28;20107;-74
2021/01/04 04:01:49;;;;;;;2.05;1.20;;;;;;;19.40;41.34;99719.94;5048077;28;20037;-71
2021/01/04 04:04:15;;;;;;;1.80;1.30;;;;;;;19.40;41.41;99712.91;5052324;28;20041;-74
2021/01/04 04:06:40;;;;;;;1.65;1.38;;;;;;;19.40;41.41;99714.69;5034640;28;20387;-71
2021/01/04 04:09:06;;;;;;;3.00;1.17;;;;;;;19.42;41.25;99713.72;5044115;28;20040;-74
2021/01/04 04:11:31;;;;;;;1.35;1.00;;;;;;;19.41;41.43;99717.25;5054535;28;20036;-72
2021/01/04 04:13:56;;;;;;;1.52;1.10;;;;;;;19.39;41.30;99721.69;5054262;28;20079;-72
2021/01/04 04:16:22;;;;;;;1.20;1.10;;;;;;;19.40;41.41;99718.16;5054538;28;20134;-72
2021/01/04 04:18:47;;;;;;;1.27;1.15;;;;;;;19.41;41.26;99711.16;5054112;28;20079;-74
2021/01/04 04:21:14;;;;;;;1.00;0.90;;;;;;;19.40;41.55;99714.69;5053828;28;20036;-73
2021/01/04 04:23:40;;;;;;;1.35;1.20;;;;;;;19.40;41.40;99720.78;5054166;28;20497;-72
2021/01/04 04:26:15;;;;;;;1.45;1.25;;;;;;;19.40;41.49;99714.69;5044624;28;20037;-76
2021/01/04 04:28:40;;;;;;;1.50;1.10;;;;;;;19.40;41.31;99706.81;5034393;28;20116;-74
2021/01/04 04:31:06;;;;;;;1.33;0.93;;;;;;;19.40;41.66;99712.91;5034362;28;20589;-71
2021/01/04 04:33:31;;;;;;;1.27;1.10;;;;;;;19.41;41.35;99712.00;5049970;28;20052;-74
2021/01/04 04:35:56;;;;;;;1.48;1.10;;;;;;;19.40;41.25;99712.91;5054253;28;20036;-72
2021/01/04 04:38:22;;;;;;;1.27;1.10;;;;;;;19.41;41.42;99716.41;5053981;28;20044;-73
2021/01/04 04:40:49;;;;;;;1.38;1.05;;;;;;;19.41;41.35;99724.28;5054009;28;20026;-73
2021/01/04 04:43:27;;;;;;;1.33;1.15;;;;;;;19.39;41.15;99715.59;5069171;28;20033;-75
2021/01/04 04:45:54;;;;;;;2.10;1.30;;;;;;;19.40;41.43;99720.78;5054013;28;20033;-73
2021/01/04 04:48:40;;;;;;;1.75;1.17;;;;;;;19.41;41.40;99721.66;5053771;28;20033;-72
2021/01/04 04:51:32;;;;;;;2.25;1.48;;;;;;;19.39;41.23;99721.69;5053321;28;20078;-72
2021/01/04 04:54:49;;;;;;;1.17;0.98;;;;;;;19.39;41.37;99716.44;5035809;28;20517;-76
2021/01/04 04:57:20;;;;;;;2.72;1.30;;;;;;;19.40;41.28;99719.94;5030228;28;20037;-72
2021/01/04 05:00:09;;;;;;;1.08;0.90;;;;;;;19.43;41.32;99704.94;5028099;28;20045;-72
2021/01/04 05:03:10;;;;;;;1.45;0.95;;;;;;;19.42;41.29;99711.09;5032639;28;20049;-76
2021/01/04 05:05:41;;;;;;;1.30;1.10;;;;;;;19.40;41.28;99712.91;5033091;28;20040;-73
2021/01/04 05:08:33;;;;;;;1.13;1.00;;;;;;;19.36;41.27;99716.53;5036076;28;20517;-73
2021/01/04 05:10:59;;;;;;;1.15;0.88;;;;;;;19.37;41.33;99722.63;5053417;28;20044;-76
2021/01/04 05:13:29;;;;;;;1.30;1.02;;;;;;;19.36;41.32;99716.53;5040940;28;20044;-75
2021/01/04 05:16:00;;;;;;;1.52;0.98;;;;;;;19.36;41.31;99719.16;5032670;28;20398;-73
2021/01/04 05:18:34;;;;;;;1.75;1.30;;;;;;;19.37;41.20;99722.63;5033409;28;20045;-74
2021/01/04 05:21:30;;;;;;;1.33;1.13;;;;;;;19.36;41.33;99727.03;5036441;28;20040;-75
2021/01/04 05:24:33;;;;;;;1.40;1.15;;;;;;;19.36;41.33;99721.78;5052984;28;20033;-75
2021/01/04 05:27:18;;;;;;;2.58;0.95;;;;;;;19.36;41.17;99726.16;5052859;28;20432;-74
2021/01/04 05:30:14;;;;;;;1.35;1.13;;;;;;;19.37;41.02;99720.88;5052894;28;20101;-75
2021/01/04 05:32:54;;;;;;;2.55;1.23;;;;;;;19.38;41.11;99719.09;5050893;28;20045;-77
2021/01/04 05:35:20;;;;;;;1.70;1.10;;;;;;;19.39;41.31;99724.31;5032982;28;20165;-73
2021/01/04 05:38:00;;;;;;;1.40;1.13;;;;;;;19.38;41.22;99720.00;5033010;28;20112;-74
2021/01/04 05:40:45;;;;;;;0.95;0.80;;;;;;;19.38;41.09;99727.88;5034237;28;20037;-71
2021/01/04 05:43:12;;;;;;;1.20;1.10;;;;;;;19.39;41.36;99728.72;5052464;28;20135;-76
2021/01/04 05:45:53;;;;;;;1.55;1.25;;;;;;;19.39;41.16;99732.19;5051274;28;20131;-74
2021/01/04 05:48:35;;;;;;;1.45;1.05;;;;;;;19.39;41.30;99733.97;5052691;28;20029;-71
2021/01/04 05:51:14;;;;;;;1.65;1.35;;;;;;;19.39;41.27;99742.72;5052084;28;20044;-75
2021/01/04 05:53:42;;;;;;;1.15;0.80;;;;;;;19.39;41.23;99733.97;5052590;28;20052;-72
2021/01/04 05:56:07;;;;;;;2.28;1.25;;;;;;;19.39;41.44;99736.59;5052328;28;20055;-74
2021/01/04 05:58:34;;;;;;;1.98;1.02;;;;;;;19.38;41.19;99746.25;5052027;28;20481;-72
2021/01/04 06:01:10;;;;;;;1.10;1.00;;;;;;;19.36;41.17;99745.44;5051017;28;20079;-73
2021/01/04 06:03:36;;;;;;;1.15;0.90;;;;;;;19.37;41.15;99741.91;5052169;28;20065;-72
2021/01/04 06:06:09;;;;;;;1.40;1.10;;;;;;;19.37;41.22;99751.53;5051108;28;20067;-72
2021/01/04 06:08:35;;;;;;;1.25;1.05;;;;;;;19.39;41.21;99744.50;5044407;28;20025;-75
2021/01/04 06:11:12;;;;;;;1.30;1.20;;;;;;;19.37;41.33;99744.53;5032129;28;20028;-74
2021/01/04 06:13:41;;;;;;;1.38;1.15;;;;;;;19.40;41.44;99751.47;5032307;28;20042;-73
2021/01/04 06:16:24;;;;;;;3.63;1.35;;;;;;;19.40;40.95;99749.69;5034878;28;20029;-73
2021/01/04 06:19:06;;;;;;;6.07;1.20;;;;;;;19.42;41.16;99755.78;5034845;28;20452;-77
2021/01/04 06:21:41;;;;;;;8.88;1.20;;;;;;;19.45;41.46;99760.09;5049297;28;20532;-75
2021/01/04 06:24:10;;;;;;;3.58;1.15;;;;;;;19.45;41.50;99760.09;5043674;28;20059;-73
2021/01/04 06:26:40;;;;;;;2.30;1.00;;;;;;;19.47;41.54;99758.28;5050997;28;20036;-74
2021/01/04 06:29:07;;;;;;;1.65;1.00;;;;;;;19.45;41.45;99755.69;5050313;28;20025;-74
2021/01/04 06:31:46;;;;;;;1.90;1.45;;;;;;;19.48;41.49;99758.25;5040417;28;20109;-75
2021/01/04 06:34:32;;;;;;;5.03;1.30;;;;;;;19.50;41.31;99760.84;5048615;28;20041;-73
2021/01/04 06:37:09;;;;;;;4.40;1.50;;;;;;;19.48;41.31;99765.25;5037684;28;20032;-73
2021/01/04 06:39:35;;;;;;;2.95;1.23;;;;;;;19.51;41.50;99769.59;5040903;28;20044;-77
2021/01/04 06:42:19;;;;;;;16.70;1.88;;;;;;;19.54;41.55;99769.53;5036793;28;20421;-76
2021/01/04 06:45:01;;;;;;;5.05;1.67;;;;;;;19.52;41.49;99772.19;5044633;28;20086;-74
2021/01/04 06:47:43;;;;;;;2.97;0.98;;;;;;;19.50;41.46;99768.72;5051718;28;20986;-77
2021/01/04 06:50:26;;;;;;;5.05;1.50;;;;;;;19.49;41.53;99772.25;5051895;28;20040;-77
2021/01/04 06:53:10;;;;;;;2.53;1.65;;;;;;;19.53;41.68;99776.53;5051150;28;20039;-77
2021/01/04 06:56:23;;;;;;;3.47;1.70;;;;;;;19.53;41.50;99773.91;5051560;28;20037;-73
2021/01/04 06:59:18;;;;;;;9.63;1.58;;;;;;;19.55;41.54;99779.09;5044964;28;20049;-76
2021/01/04 07:02:11;;;;;;;4.32;1.42;;;;;;;19.54;41.59;99778.25;5045431;28;20033;-78
2021/01/04 07:04:58;;;;;;;5.03;1.52;;;;;;;19.52;41.57;99777.44;5051661;28;20041;-73
2021/01/04 07:07:38;;;;;;;3.80;1.27;;;;;;;19.54;41.50;99783.50;5050292;28;20029;-75
2021/01/04 07:10:07;;;;;;;2.50;1.23;;;;;;;19.52;41.61;99790.56;5051968;28;20512;-74
2021/01/04 07:12:57;;;;;;;4.68;1.85;;;;;;;19.53;41.63;99794.94;5051715;28;20040;-73
2021/01/04 07:15:30;;;;;;;7.95;2.08;;;;;;;19.53;41.38;99787.03;5052226;28;20064;-74
2021/01/04 07:18:23;;;;;;;2.40;1.58;;;;;;;19.50;41.64;99779.22;5051573;28;20025;-74
2021/01/04 07:21:12;;;;;;;4.50;1.58;;;;;;;19.54;41.21;99790.56;5052918;28;20056;-74
2021/01/04 07:24:12;;;;;;;7.32;1.80;;;;;;;19.49;41.45;99788.00;5034140;28;20037;-75
2021/01/04 07:26:55;;;;;;;3.67;1.63;;;;;;;19.48;41.55;99792.41;5046805;28;20120;-73
2021/01/04 07:29:41;;;;;;;3.42;1.33;;;;;;;19.48;41.60;99794.16;5054608;28;20033;-73
2021/01/04 07:32:14;;;;;;;5.70;1.52;;;;;;;19.47;41.62;99793.31;5049102;28;20041;-74
2021/01/04 07:34:56;;;;;;;2.55;1.58;;;;;;;19.48;41.47;99799.44;5050279;28;20049;-74
2021/01/04 07:37:42;;;;;;;;;;;;;;;19.45;41.55;99795.13;5035156;28;20033;-73
2021/01/04 07:40:45;;;;;;;7.60;1.40;;;;;;;19.46;41.47;99798.63;5033297;28;19916;-77
2021/01/04 07:43:50;;;;;;;3.70;1.63;;;;;;;19.45;41.61;99803.00;5034533;28;20398;-73
2021/01/04 07:46:50;;;;;;;4.57;1.63;;;;;;;19.45;41.51;99813.50;5034954;28;20037;-73
2021/01/04 07:50:00;;;;;;;4.70;1.88;;;;;;;19.48;41.40;99799.44;5034702;28;20119;-73
2021/01/04 07:52:47;;;;;;;3.85;1.80;;;;;;;19.46;41.57;99807.34;4992865;28;20030;-74
2021/01/04 07:55:42;;;;;;;3.08;1.55;;;;;;;19.47;41.67;99808.22;4992662;28;20110;-74
2021/01/04 07:58:42;;;;;;;2.65;1.60;;;;;;;19.48;41.43;99810.81;5028428;28;20049;-75
2021/01/04 08:01:24;;;;;;;2.88;1.73;;;;;;;19.47;41.52;99816.97;5038540;28;20413;-74
2021/01/04 08:04:26;;;;;;;2.85;1.70;;;;;;;19.47;41.37;99811.72;5034605;28;20040;-73
2021/01/04 08:07:19;;;;;;;4.32;1.67;;;;;;;19.46;41.30;99817.88;5035546;28;20573;-82
2021/01/04 08:10:07;;;;;;;3.22;1.40;;;;;;;19.48;41.52;99823.97;5049865;28;20064;-79
2021/01/04 08:12:39;;;;;;;2.50;1.63;;;;;;;19.48;41.50;99818.69;5040974;28;20037;-75
2021/01/04 08:15:22;;;;;;;1.95;1.52;;;;;;;19.48;41.45;99813.44;5034603;28;20528;-79
2021/01/04 08:17:54;;;;;;;3.45;1.60;;;;;;;19.50;41.55;99825.69;5033275;28;20441;-73
2021/01/04 08:20:21;;;;;;;2.67;1.60;;;;;;;19.50;41.51;99825.69;5034240;28;20056;-79
2021/01/04 08:22:52;;;;;;;5.05;1.58;;;;;;;19.52;41.62;99831.78;5052882;28;20037;-78
2021/01/04 08:25:26;;;;;;;5.25;1.52;;;;;;;19.51;41.55;99825.63;5054024;28;20041;-74
2021/01/04 08:28:47;;;;;;;2.35;1.35;;;;;;;19.52;41.23;99839.66;5054052;28;20048;-73
2021/01/04 08:31:21;;;;;;;2.97;1.20;;;;;;;19.53;41.51;99836.13;5012095;28;20128;-73
2021/01/04 08:33:53;;;;;;;2.08;1.45;;;;;;;19.52;41.62;99837.88;5053220;28;20420;-79
2021/01/04 08:36:24;;;;;;;3.10;1.45;;;;;;;19.53;41.33;99839.59;5054141;28;20040;-74
2021/01/04 08:38:51;;;;;;;3.40;1.50;;;;;;;19.54;41.40;99837.84;5053520;28;20553;-77
2021/01/04 08:41:27;;;;;;;2.17;1.52;;;;;;;19.54;41.53;99853.63;5044448;28;20025;-74
2021/01/04 08:43:53;;;;;;;2.45;1.42;;;;;;;19.54;41.34;99840.50;5032462;28;20545;-73
2021/01/04 08:46:21;;;;;;;1.70;1.20;;;;;;;19.55;41.35;99845.69;5033644;28;20109;-79
2021/01/04 08:48:48;;;;;;;2.03;1.45;;;;;;;19.55;41.55;99847.44;5033778;28;20494;-75
2021/01/04 08:51:39;;;;;;;3.42;1.70;;;;;;;19.54;41.43;99846.59;5031992;28;20033;-74
2021/01/04 08:54:29;;;;;;;2.05;1.30;;;;;;;19.55;41.60;99850.94;5048976;28;20060;-74
2021/01/04 08:57:03;;;;;;;1.77;1.25;;;;;;;19.57;41.38;99853.53;5033610;28;20041;-79
2021/01/04 08:59:33;;;;;;;2.35;1.52;;;;;;;19.56;41.20;99857.06;5033725;28;20036;-78
2021/01/04 09:02:13;;;;;;;2.83;1.50;;;;;;;19.59;41.27;99862.25;5049175;28;20051;-75
2021/01/04 09:04:39;;;;;;;3.13;1.67;;;;;;;19.58;41.44;99864.03;5052391;28;20053;-74
2021/01/04 09:07:05;;;;;;;1.98;1.40;;;;;;;19.57;41.27;99859.66;5051919;28;20041;-79
2021/01/04 09:09:35;;;;;;;3.40;1.35;;;;;;;19.62;41.38;99862.19;5039869;28;20498;-75
2021/01/04 09:12:06;;;;;;;3.42;1.60;;;;;;;19.61;41.25;99858.69;5042694;28;20033;-79
2021/01/04 09:15:05;;;;;;;4.90;1.60;;;;;;;19.59;41.58;99851.72;5044277;28;20071;-77
2021/01/04 09:17:46;;;;;;;2.28;1.55;;;;;;;19.62;41.59;99862.19;5019037;28;20048;-77
2021/01/04 09:20:35;;;;;;;3.50;1.73;;;;;;;19.61;41.27;99861.31;5046601;28;20043;-75
2021/01/04 09:23:13;;;;;;;3.15;1.42;;;;;;;19.61;41.45;99863.97;5035793;28;20041;-74
2021/01/04 09:25:47;;;;;;;2.80;1.70;;;;;;;19.60;41.44;99864.84;5037074;28;20405;-76
2021/01/04 09:28:15;;;;;;;3.95;1.73;;;;;;;19.61;41.46;99866.59;5035610;28;20037;-79
2021/01/04 09:30:41;;;;;;;1.85;1.30;;;;;;;19.64;41.29;99860.38;5031653;28;20041;-78
2021/01/04 09:33:13;;;;;;;2.80;1.83;;;;;;;19.62;41.30;99860.41;5050946;28;20099;-80
2021/01/04 09:35:38;;;;;;;3.03;1.88;;;;;;;19.66;41.56;99865.59;5053019;28;20485;-76
2021/01/04 09:38:12;;;;;;;6.00;1.75;;;;;;;19.68;41.47;99869.03;5034922;28;20028;-76
2021/01/04 09:40:38;;;;;;;3.05;1.30;;;;;;;19.69;41.17;99865.53;5031840;28;20053;-79
2021/01/04 09:43:12;;;;;;;3.85;1.80;;;;;;;19.72;41.41;99862.81;5047383;28;20037;-76
2021/01/04 09:45:39;;;;;;;3.00;1.67;;;;;;;19.71;41.40;99866.34;5033130;28;20045;-79
2021/01/04 09:48:30;;;;;;;2.60;1.67;;;;;;;19.71;41.39;99867.19;5032750;28;20063;-80
2021/01/04 09:51:00;;;;;;;2.75;1.70;;;;;;;19.70;41.40;99868.09;5032090;28;20033;-80
2021/01/04 09:53:32;;;;;;;4.30;2.20;;;;;;;19.66;41.51;99870.84;5032667;28;20045;-79
2021/01/04 09:56:08;;;;;;;2.92;2.05;;;;;;;19.66;41.34;99878.72;5031296;28;20037;-75
2021/01/04 09:58:33;;;;;;;4.38;2.17;;;;;;;19.68;41.32;99882.19;5032821;28;20532;-77
2021/01/04 10:01:14;;;;;;;3.33;1.88;;;;;;;19.68;41.01;99884.81;5039753;28;20064;-75
2021/01/04 10:03:53;;;;;;;4.95;1.88;;;;;;;19.63;41.18;99880.53;5050968;28;20108;-78
2021/01/04 10:06:22;;;;;;;3.83;2.50;;;;;;;19.67;41.43;99878.72;5052214;28;20036;-79
2021/01/04 10:08:48;;;;;;;3.20;1.88;;;;;;;19.66;41.30;99887.50;5047712;28;20512;-80
2021/01/04 10:11:20;;;;;;;4.20;2.03;;;;;;;19.68;41.28;99877.81;5032409;28;20120;-80
2021/01/04 10:13:46;;;;;;;2.78;1.73;;;;;;;19.70;41.38;99875.13;5032149;28;20034;-78
2021/01/04 10:16:18;;;;;;;3.20;1.92;;;;;;;19.68;41.36;99871.69;5032232;28;20033;-77
2021/01/04 10:18:49;;;;;;;3.28;1.85;;;;;;;19.69;41.34;99868.16;5047819;28;20394;-78
2021/01/04 10:21:20;;;;;;;5.18;2.10;;;;;;;19.70;41.54;99877.75;5036364;28;20045;-79
2021/01/04 10:24:00;;;;;;;4.00;2.10;;;;;;;19.69;41.41;99873.41;5050836;28;20029;-80
2021/01/04 10:26:25;;;;;;;3.25;1.98;;;;;;;19.70;41.21;99867.25;5050793;28;20032;-76
2021/01/04 10:28:51;;;;;;;2.85;1.83;;;;;;;19.70;41.24;99864.63;5051069;28;20405;-77
2021/01/04 10:31:26;;;;;;;7.50;2.15;;;;;;;19.70;41.42;99869.88;5052010;28;20043;-80
2021/01/04 10:34:07;;;;;;;4.72;1.88;;;;;;;19.69;41.45;99862.88;5051862;28;20151;-76
2021/01/04 10:36:34;;;;;;;3.75;1.73;;;;;;;19.69;41.12;99863.78;5051808;28;20040;-77
2021/01/04 10:39:18;;;;;;;5.25;1.92;;;;;;;19.70;41.35;99862.84;5050878;28;20040;-76
2021/01/04 10:41:44;;;;;;;9.13;2.13;;;;;;;19.71;40.88;99868.97;5050794;28;20040;-76
2021/01/04 10:44:14;;;;;;;2.70;1.55;;;;;;;19.69;41.45;99871.66;5052023;28;20033;-78
2021/01/04 10:47:00;;;;;;;2.35;1.67;;;;;;;19.71;41.44;99869.81;5051817;28;20501;-77
2021/01/04 10:49:35;;;;;;;3.03;2.13;;;;;;;19.72;41.38;99863.66;5051657;28;20174;-74
2021/01/04 10:52:03;;;;;;;3.13;1.90;;;;;;;19.71;41.34;99861.94;5042943;28;20041;-76
2021/01/04 10:54:43;;;;;;;3.13;1.73;;;;;;;19.71;41.22;99866.34;5047180;28;20083;-75
2021/01/04 10:57:12;;;;;;;2.70;1.73;;;;;;;19.71;41.44;99855.84;5051652;28;20045;-74
2021/01/04 10:59:46;;;;;;;4.57;1.92;;;;;;;19.70;41.25;99862.84;5051458;28;20553;-76
2021/01/04 11:02:12;;;;;;;3.20;1.67;;;;;;;19.72;41.20;99855.78;5046972;28;20156;-78
2021/01/04 11:04:38;;;;;;;2.95;1.73;;;;;;;19.75;41.48;99853.09;5031214;28;20128;-77
2021/01/04 11:07:15;;;;;;;3.45;1.83;;;;;;;19.73;41.23;99852.25;5031273;28;20067;-74
2021/01/04 11:09:42;;;;;;;2.97;1.83;;;;;;;19.72;41.33;99858.41;5031148;28;20494;-74
2021/01/04 11:12:13;;;;;;;1.77;1.38;;;;;;;19.74;41.31;99853.13;5049083;28;20044;-74
2021/01/04 11:14:51;;;;;;;2.90;1.80;;;;;;;19.72;41.49;99847.91;5031479;28;20041;-73
2021/01/04 11:17:36;;;;;;;4.55;1.92;;;;;;;19.72;41.30;99849.69;5038327;28;20036;-74
2021/01/04 11:20:22;;;;;;;2.33;1.50;;;;;;;19.71;41.13;99840.91;5049877;28;20098;-74
2021/01/04 11:23:08;;;;;;;3.25;1.80;;;;;;;19.71;41.78;99843.53;5050542;28;20041;-76
2021/01/04 11:25:35;;;;;;;2.53;1.70;;;;;;;19.69;41.39;99837.47;5050777;28;20072;-75
2021/01/04 11:28:00;;;;;;;3.03;1.90;;;;;;;19.72;41.36;99845.25;5046340;28;20451;-74
2021/01/04 11:30:29;;;;;;;2.25;1.60;;;;;;;19.73;41.29;99843.53;5045990;28;20041;-77
2021/01/04 11:32:55;;;;;;;4.60;1.90;;;;;;;19.75;41.51;99842.56;5047948;28;20025;-77
2021/01/04 11:35:20;;;;;;;5.13;2.20;;;;;;;19.74;41.63;99840.84;5050610;28;20221;-79
2021/01/04 11:37:46;;;;;;;6.32;1.90;;;;;;;19.74;41.42;99845.25;5051140;28;20033;-76
2021/01/04 11:40:12;;;;;;;2.80;2.00;;;;;;;19.75;41.48;99844.34;5051546;28;20032;-74
2021/01/04 11:42:37;;;;;;;2.70;1.42;;;;;;;19.77;41.37;99837.28;5044746;28;20818;-73
2021/01/04 11:45:16;;;;;;;3.47;1.88;;;;;;;19.76;41.37;99838.19;5035592;28;20033;-75
2021/01/04 11:47:41;;;;;;;3.45;1.70;;;;;;;19.74;41.25;99838.22;5050836;28;20083;-75
2021/01/04 11:50:08;;;;;;;2.95;1.85;;;;;;;19.74;41.29;99837.34;5050658;28;20505;-74
2021/01/04 11:52:35;;;;;;;5.25;3.10;;;;;;;19.68;41.28;99832.25;5050455;28;20033;-76
2021/01/04 11:55:01;;;;;;;4.93;4.15;;;;;;;19.67;40.90;99826.13;5049138;28;20167;-78
2021/01/04 11:57:26;;;;;;;6.50;3.33;;;;;;;19.61;40.79;99824.53;5045178;28;20542;-73
2021/01/04 11:59:52;;;;;;;6.90;4.45;;;;;;;19.59;40.74;99821.06;5034387;28;20029;-73
2021/01/04 12:02:17;;;;;;;6.95;4.00;;;;;;;19.57;40.22;99820.25;5050183;28;20599;-74
2021/01/04 12:04:44;;;;;;;10.38;4.05;;;;;;;19.57;40.40;99824.63;5049600;28;20041;-72
2021/01/04 12:07:10;;;;;;;6.00;4.20;;;;;;;19.58;40.60;99821.09;5054035;28;20088;-73
2021/01/04 12:09:36;;;;;;;5.40;3.30;;;;;;;19.58;40.73;99815.84;5054282;28;20056;-73
2021/01/04 12:12:01;;;;;;;5.25;3.53;;;;;;;19.58;40.74;99821.09;5043090;28;20068;-74
2021/01/04 12:14:27;;;;;;;7.32;3.60;;;;;;;19.57;40.49;99822.00;5054420;28;20029;-74
2021/01/04 12:16:53;;;;;;;5.18;3.35;;;;;;;19.59;40.84;99825.44;5054247;28;20036;-77
2021/01/04 12:19:18;;;;;;;7.15;3.28;;;;;;;19.59;40.95;99820.19;5052990;28;20033;-75